Time;durP1;ratioP1;P1;durP2;ratioP2;P2;SDS_P1;SDS_P2;PMS_P1;PMS_P2;Temp;Humidity;BMP_temperature;BMP_pressure;BME280_temperature;BME280_humidity;BME280_pressure;Samples;Min_cycle;Max_cycle;Signal;HPM_P1;HPM_P2
2022/04/11 00:01:54;;;;;;;10.20;3.40;;;0.70;92.80;;;;;;5029269;28;20031;-71
2022/04/11 00:04:20;;;;;;;7.63;3.08;;;0.70;92.70;;;;;;5026433;28;20554;-71
2022/04/11 00:06:45;;;;;;;12.98;4.38;;;0.80;92.80;;;;;;5026158;28;20358;-71
2022/04/11 00:09:11;;;;;;;13.45;3.60;;;0.80;92.60;;;;;;5034739;28;20040;-71
2022/04/11 00:11:36;;;;;;;11.20;3.75;;;0.80;92.70;;;;;;5034875;28;20042;-71
2022/04/11 00:14:04;;;;;;;15.60;3.42;;;0.80;92.40;;;;;;5034487;28;20022;-71
2022/04/11 00:16:30;;;;;;;13.27;3.63;;;0.70;92.30;;;;;;5021363;28;20461;-71
2022/04/11 00:18:55;;;;;;;12.52;4.07;;;0.70;92.40;;;;;;5020898;28;20472;-71
2022/04/11 00:21:21;;;;;;;16.67;3.63;;;0.60;92.30;;;;;;5033554;28;20021;-72
2022/04/11 00:23:47;;;;;;;14.13;4.18;;;0.50;92.40;;;;;;5028203;28;20036;-71
2022/04/11 00:26:12;;;;;;;15.75;4.18;;;0.50;92.30;;;;;;5033554;28;20088;-71
2022/04/11 00:28:38;;;;;;;12.05;3.50;;;0.50;92.30;;;;;;5034234;28;20079;-72
2022/04/11 00:31:03;;;;;;;11.52;3.83;;;0.40;92.40;;;;;;5034076;28;20144;-71
2022/04/11 00:33:29;;;;;;;12.38;4.03;;;0.50;92.50;;;;;;5024030;28;20049;-71
2022/04/11 00:35:54;;;;;;;13.10;3.67;;;0.60;92.60;;;;;;5033426;28;20060;-71
2022/04/11 00:38:20;;;;;;;14.55;3.97;;;0.60;92.50;;;;;;5034247;28;20042;-71
2022/04/11 00:40:45;;;;;;;14.18;4.05;;;0.50;92.20;;;;;;5022314;28;20485;-72
2022/04/11 00:43:30;;;;;;;11.05;3.75;;;0.40;92.30;;;;;;5034063;28;20050;-71
2022/04/11 00:45:56;;;;;;;10.77;3.67;;;0.40;92.20;;;;;;5033721;28;20033;-71
2022/04/11 00:48:22;;;;;;;13.77;3.75;;;0.30;92.40;;;;;;5033757;28;20469;-72
2022/04/11 00:50:48;;;;;;;10.70;3.67;;;0.30;92.40;;;;;;5020427;28;20030;-71
2022/04/11 00:53:14;;;;;;;11.43;3.85;;;0.30;92.50;;;;;;5032727;28;20029;-71
2022/04/11 00:55:39;;;;;;;10.90;3.80;;;0.10;92.20;;;;;;5032184;28;20040;-71
2022/04/11 00:58:05;;;;;;;9.18;3.42;;;0.20;92.50;;;;;;5021808;28;20499;-71
2022/04/11 01:00:31;;;;;;;11.07;4.03;;;0.10;92.60;;;;;;5033229;28;20035;-71
2022/04/11 01:02:57;;;;;;;14.88;4.07;;;0.10;92.70;;;;;;5031536;28;20046;-71
2022/04/11 01:05:22;;;;;;;14.50;3.90;;;0.10;92.50;;;;;;5032206;28;20380;-71
2022/04/11 01:07:51;;;;;;;9.40;3.78;;;0.20;92.70;;;;;;5033088;28;20033;-71
2022/04/11 01:10:16;;;;;;;12.40;4.20;;;0.10;92.70;;;;;;5033798;28;20033;-71
2022/04/11 01:12:42;;;;;;;13.18;4.05;;;0.20;92.70;;;;;;5033403;28;20029;-71
2022/04/11 01:15:08;;;;;;;12.75;4.00;;;0.10;92.50;;;;;;5025959;28;20036;-71
2022/04/11 01:17:34;;;;;;;10.18;4.13;;;0.10;92.90;;;;;;5026786;28;20106;-72
2022/04/11 01:20:09;;;;;;;15.15;4.07;;;0.10;92.90;;;;;;5032529;28;20033;-71
2022/04/11 01:22:35;;;;;;;19.15;4.10;;;0.20;92.90;;;;;;5033008;28;20079;-71
2022/04/11 01:25:02;;;;;;;12.57;4.30;;;0.20;92.70;;;;;;5025042;28;20423;-71
2022/04/11 01:27:30;;;;;;;14.15;3.83;;;0.10;92.60;;;;;;5032086;28;20040;-71
2022/04/11 01:29:55;;;;;;;9.57;3.72;;;0.10;92.70;;;;;;5032792;28;20063;-71
2022/04/11 01:32:21;;;;;;;14.20;4.22;;;0.10;92.90;;;;;;5029501;28;20030;-71
2022/04/11 01:34:46;;;;;;;18.45;4.15;;;0.10;92.90;;;;;;5032294;28;20045;-71
2022/04/11 01:37:12;;;;;;;16.38;4.50;;;0.20;93.00;;;;;;5032771;28;20029;-71
2022/04/11 01:39:37;;;;;;;10.23;3.97;;;0.20;92.90;;;;;;5033239;28;20029;-71
2022/04/11 01:42:03;;;;;;;12.13;3.40;;;0.20;92.80;;;;;;5021673;28;20032;-71
2022/04/11 01:44:29;;;;;;;11.60;3.60;;;0.30;92.80;;;;;;5032403;28;20053;-71
2022/04/11 01:46:54;;;;;;;14.27;4.53;;;0.20;92.70;;;;;;5032174;28;20483;-71
2022/04/11 01:49:20;;;;;;;18.85;3.72;;;0.30;92.80;;;;;;5027813;28;20053;-71
2022/04/11 01:51:45;;;;;;;9.77;3.83;;;0.30;92.60;;;;;;5030927;28;20040;-72
2022/04/11 01:54:14;;;;;;;13.68;4.22;;;0.30;92.70;;;;;;5032682;28;20057;-71
2022/04/11 01:56:40;;;;;;;13.27;3.95;;;0.10;92.40;;;;;;5032977;28;20034;-73
2022/04/11 01:59:05;;;;;;;10.13;3.50;;;0.10;92.60;;;;;;5026265;28;20430;-72
2022/04/11 02:01:30;;;;;;;12.18;3.72;;;0.10;92.70;;;;;;5031788;28;20033;-71
2022/04/11 02:03:56;;;;;;;13.27;4.07;;;0.10;92.70;;;;;;5030537;28;20412;-71
2022/04/11 02:06:22;;;;;;;14.70;4.50;;;0.10;92.80;;;;;;5020996;28;20033;-72
2022/04/11 02:08:47;;;;;;;14.02;3.65;;;0.10;92.80;;;;;;5032615;28;20477;-71
2022/04/11 02:11:13;;;;;;;11.98;3.80;;;0.10;92.70;;;;;;5032470;28;20033;-74
2022/04/11 02:13:38;;;;;;;12.60;3.78;;;0.20;92.80;;;;;;5032341;28;20040;-73
2022/04/11 02:16:04;;;;;;;8.55;4.07;;;0.20;92.80;;;;;;5018813;28;20032;-71
2022/04/11 02:18:29;;;;;;;10.63;3.78;;;0.20;92.80;;;;;;5032201;28;20037;-71
2022/04/11 02:20:55;;;;;;;12.05;4.47;;;0.20;92.80;;;;;;5028169;28;20025;-71
2022/04/11 02:23:20;;;;;;;12.63;3.85;;;0.20;92.80;;;;;;5023951;28;20064;-71
2022/04/11 02:25:46;;;;;;;16.55;4.32;;;0.30;92.80;;;;;;5031428;28;20028;-71
2022/04/11 02:28:12;;;;;;;14.38;4.25;;;0.40;92.80;;;;;;5031253;28;20033;-72
2022/04/11 02:30:39;;;;;;;12.90;3.90;;;0.30;92.60;;;;;;5031014;28;20029;-71
2022/04/11 02:33:05;;;;;;;10.80;3.55;;;0.30;92.60;;;;;;5025414;28;20034;-71
2022/04/11 02:35:30;;;;;;;12.50;4.47;;;0.30;92.60;;;;;;5031757;28;20044;-71
2022/04/11 02:37:56;;;;;;;15.23;4.00;;;0.20;92.60;;;;;;5031902;28;20469;-71
2022/04/11 02:40:21;;;;;;;15.32;4.15;;;0.30;92.70;;;;;;5029423;28;20033;-73
2022/04/11 02:42:47;;;;;;;13.05;3.38;;;0.30;92.70;;;;;;5031788;28;20060;-71
2022/04/11 02:45:14;;;;;;;10.27;4.28;;;0.40;92.60;;;;;;5031036;28;20390;-71
2022/04/11 02:47:40;;;;;;;12.63;3.75;;;0.40;92.60;;;;;;5030503;28;20112;-71
2022/04/11 02:50:07;;;;;;;9.18;3.83;;;0.30;92.50;;;;;;5026422;28;20502;-71
2022/04/11 02:52:32;;;;;;;11.05;3.70;;;0.30;92.50;;;;;;5031760;28;20040;-71
2022/04/11 02:54:58;;;;;;;12.15;3.60;;;0.10;92.40;;;;;;5030144;28;20033;-71
2022/04/11 02:57:24;;;;;;;11.00;4.07;;;0.10;92.40;;;;;;5027024;28;20033;-71
2022/04/11 02:59:50;;;;;;;16.65;4.32;;;0.00;92.40;;;;;;5030993;28;20056;-71
2022/04/11 03:02:16;;;;;;;9.43;4.18;;;0.00;92.50;;;;;;5020154;28;20032;-71
2022/04/11 03:04:41;;;;;;;7.50;3.83;;;0.00;92.80;;;;;;5029610;28;20397;-71
2022/04/11 03:07:07;;;;;;;12.75;4.45;;;0.00;93.00;;;;;;5019363;28;20111;-71
2022/04/11 03:09:32;;;;;;;12.35;3.80;;;0.00;92.80;;;;;;5031391;28;20032;-71
2022/04/11 03:11:58;;;;;;;14.50;4.35;;;0.00;93.10;;;;;;5029997;28;20424;-71
2022/04/11 03:14:24;;;;;;;11.77;4.60;;;0.00;93.10;;;;;;5029735;28;20033;-71
2022/04/11 03:16:50;;;;;;;14.98;4.30;;;0.00;93.00;;;;;;5029379;28;20112;-72
2022/04/11 03:19:15;;;;;;;6.35;3.70;;;0.00;93.20;;;;;;5022001;28;20099;-71
2022/04/11 03:21:41;;;;;;;11.98;4.18;;;0.00;93.10;;;;;;5030905;28;20099;-71
2022/04/11 03:24:07;;;;;;;11.07;4.60;;;0.00;93.50;;;;;;5023718;28;20048;-71
2022/04/11 03:26:32;;;;;;;11.63;4.55;;;0.10;93.40;;;;;;5030208;28;20064;-74
2022/04/11 03:28:58;;;;;;;10.15;4.43;;;0.00;93.30;;;;;;5028299;28;20029;-72
2022/04/11 03:31:23;;;;;;;11.82;4.22;;;0.00;93.40;;;;;;5028383;28;20516;-71
2022/04/11 03:33:49;;;;;;;17.73;4.65;;;0.00;93.30;;;;;;5030934;28;20346;-72
2022/04/11 03:36:14;;;;;;;12.35;4.18;;;0.00;93.40;;;;;;5030864;28;20025;-72
2022/04/11 03:38:40;;;;;;;10.90;4.35;;;0.00;93.50;;;;;;5030974;28;20041;-72
2022/04/11 03:41:05;;;;;;;11.32;4.70;;;0.00;93.40;;;;;;5024346;28;20061;-72
2022/04/11 03:43:31;;;;;;;14.77;5.22;;;0.00;93.60;;;;;;5030336;28;20441;-72
2022/04/11 03:45:56;;;;;;;13.40;4.55;;;0.10;93.80;;;;;;5029499;28;20425;-72
2022/04/11 03:48:22;;;;;;;15.45;4.95;;;0.00;93.50;;;;;;5030257;28;20087;-74
2022/04/11 03:50:47;;;;;;;17.35;4.78;;;0.10;93.60;;;;;;5030537;28;20018;-72
2022/04/11 03:53:14;;;;;;;12.38;4.60;;;0.10;93.80;;;;;;5030010;28;20531;-72
2022/04/11 03:55:40;;;;;;;18.50;5.00;;;0.10;93.70;;;;;;5017450;28;20032;-72
2022/04/11 03:58:05;;;;;;;11.85;4.55;;;0.10;93.60;;;;;;5020793;28;20034;-72
2022/04/11 04:00:31;;;;;;;16.20;4.78;;;0.10;93.60;;;;;;5030288;28;20033;-72
2022/04/11 04:03:11;;;;;;;16.58;5.50;;;0.10;93.70;;;;;;5030588;28;20041;-72
2022/04/11 04:05:44;;;;;;;15.00;4.78;;;0.20;93.70;;;;;;5027656;28;20032;-72
2022/04/11 04:08:11;;;;;;;12.50;4.70;;;0.10;93.70;;;;;;5030867;28;20603;-72
2022/04/11 04:10:37;;;;;;;11.25;4.32;;;0.10;93.60;;;;;;5029962;28;20041;-72
2022/04/11 04:13:03;;;;;;;16.50;4.90;;;0.10;93.80;;;;;;5030727;28;20041;-72
2022/04/11 04:15:29;;;;;;;13.82;5.28;;;0.10;93.70;;;;;;5030312;28;20048;-73
2022/04/11 04:17:56;;;;;;;20.35;5.45;;;0.10;93.70;;;;;;5030591;28;20177;-70
2022/04/11 04:20:23;;;;;;;17.95;5.03;;;0.20;93.80;;;;;;5029910;28;20417;-70
2022/04/11 04:22:49;;;;;;;15.00;5.38;;;0.10;93.70;;;;;;5029266;28;20085;-69
2022/04/11 04:25:14;;;;;;;14.18;5.70;;;0.10;93.70;;;;;;5029233;28;20114;-69
2022/04/11 04:27:40;;;;;;;13.25;5.28;;;0.10;93.80;;;;;;5030420;28;20029;-68
2022/04/11 04:30:06;;;;;;;13.30;5.05;;;0.10;93.80;;;;;;5028594;28;20029;-69
2022/04/11 04:32:31;;;;;;;18.05;5.63;;;0.10;93.80;;;;;;5021090;28;20065;-71
2022/04/11 04:34:57;;;;;;;14.05;5.15;;;0.10;93.80;;;;;;5029775;28;20115;-68
2022/04/11 04:37:22;;;;;;;18.77;5.05;;;0.10;93.80;;;;;;5029651;28;20392;-69
2022/04/11 04:39:48;;;;;;;16.85;5.95;;;0.10;93.80;;;;;;5027530;28;20029;-69
2022/04/11 04:42:23;;;;;;;13.40;6.13;;;0.10;93.90;;;;;;5030473;28;20036;-70
2022/04/11 04:44:49;;;;;;;18.55;5.60;;;0.10;93.90;;;;;;5030157;28;20428;-69
2022/04/11 04:47:17;;;;;;;18.77;5.97;;;0.10;93.80;;;;;;5026720;28;20033;-69
2022/04/11 04:49:44;;;;;;;13.05;5.32;;;0.20;93.90;;;;;;5026990;28;20057;-69
2022/04/11 04:52:10;;;;;;;18.65;6.28;;;0.30;93.90;;;;;;5033277;28;20101;-70
2022/04/11 04:54:36;;;;;;;15.02;5.75;;;0.40;93.90;;;;;;5029167;28;20117;-69
2022/04/11 04:57:01;;;;;;;9.82;5.18;;;0.40;93.80;;;;;;5034977;28;20045;-69
2022/04/11 04:59:27;;;;;;;13.18;5.78;;;0.60;93.80;;;;;;5034777;28;20037;-70
2022/04/11 05:01:52;;;;;;;13.32;5.47;;;0.60;93.70;;;;;;5033706;28;20388;-69
2022/04/11 05:04:18;;;;;;;11.05;5.65;;;0.70;93.70;;;;;;5028202;28;20466;-70
2022/04/11 05:06:44;;;;;;;12.77;5.22;;;0.70;93.70;;;;;;5028947;28;20104;-69
2022/04/11 05:09:09;;;;;;;19.83;5.68;;;0.90;93.70;;;;;;5032490;28;20045;-70
2022/04/11 05:11:34;;;;;;;15.63;4.85;;;1.00;93.60;;;;;;5031496;28;20041;-69
2022/04/11 05:14:00;;;;;;;12.88;5.03;;;1.10;93.50;;;;;;5044613;28;20036;-69
2022/04/11 05:16:25;;;;;;;9.07;4.57;;;1.20;93.40;;;;;;5033366;28;20059;-69
2022/04/11 05:18:51;;;;;;;13.10;4.50;;;1.30;93.20;;;;;;5029653;28;20045;-70
2022/04/11 05:21:17;;;;;;;19.55;5.43;;;1.40;93.00;;;;;;5030423;28;20034;-70
2022/04/11 05:23:42;;;;;;;8.63;4.55;;;1.50;92.80;;;;;;5027294;28;20441;-70
2022/04/11 05:26:08;;;;;;;8.80;4.22;;;1.60;92.50;;;;;;5032363;28;20532;-70
2022/04/11 05:28:33;;;;;;;10.35;4.13;;;1.70;92.30;;;;;;5032048;28;20025;-68
2022/04/11 05:31:00;;;;;;;11.95;4.50;;;1.90;92.20;;;;;;5028071;28;20164;-69
2022/04/11 05:33:26;;;;;;;7.65;3.97;;;2.00;92.00;;;;;;5033913;28;20465;-68
2022/04/11 05:35:53;;;;;;;9.30;3.78;;;2.00;91.70;;;;;;5033079;28;20097;-70
2022/04/11 05:38:19;;;;;;;9.73;3.65;;;2.10;91.50;;;;;;5029890;28;20081;-68
2022/04/11 05:40:46;;;;;;;13.00;4.50;;;2.20;91.30;;;;;;5025194;28;20034;-69
2022/04/11 05:43:14;;;;;;;9.73;3.22;;;2.30;90.90;;;;;;5033842;28;20055;-71
2022/04/11 05:45:43;;;;;;;12.70;3.85;;;2.30;90.70;;;;;;5029829;28;20195;-68
2022/04/11 05:48:09;;;;;;;16.45;4.32;;;2.40;90.30;;;;;;5032987;28;20026;-69
2022/04/11 05:50:35;;;;;;;9.65;3.55;;;2.50;90.00;;;;;;5027941;28;20112;-69
2022/04/11 05:53:01;;;;;;;10.50;3.20;;;2.50;89.70;;;;;;5022247;28;20109;-69
2022/04/11 05:55:27;;;;;;;8.68;2.95;;;2.60;89.50;;;;;;5027376;28;20034;-69
2022/04/11 05:57:53;;;;;;;8.85;3.35;;;2.70;89.50;;;;;;5026944;28;20476;-69
2022/04/11 06:00:19;;;;;;;8.75;3.22;;;2.80;89.20;;;;;;5031614;28;20030;-69
2022/04/11 06:02:45;;;;;;;9.88;3.38;;;2.90;89.00;;;;;;5031566;28;20075;-71
2022/04/11 06:05:11;;;;;;;8.57;3.47;;;3.00;88.60;;;;;;5031955;28;20037;-69
2022/04/11 06:07:37;;;;;;;9.52;3.33;;;3.10;88.20;;;;;;5032672;28;20025;-69
2022/04/11 06:10:03;;;;;;;7.50;3.10;;;3.20;88.10;;;;;;5032695;28;20037;-69
2022/04/11 06:12:29;;;;;;;6.72;3.10;;;3.30;87.50;;;;;;5028906;28;20057;-68
2022/04/11 06:14:55;;;;;;;5.55;2.90;;;3.30;87.30;;;;;;5031713;28;20140;-69
2022/04/11 06:17:24;;;;;;;7.95;3.50;;;3.30;87.30;;;;;;5033926;28;20040;-70
2022/04/11 06:19:54;;;;;;;5.72;2.80;;;3.40;87.20;;;;;;5028630;28;20428;-67
2022/04/11 06:22:20;;;;;;;7.80;3.05;;;3.50;87.10;;;;;;5023890;28;20132;-69
2022/04/11 06:24:47;;;;;;;12.77;3.50;;;3.50;86.90;;;;;;5032728;28;20108;-70
2022/04/11 06:27:12;;;;;;;9.20;3.30;;;3.60;86.50;;;;;;5032629;28;20045;-69
2022/04/11 06:29:37;;;;;;;9.88;3.47;;;3.70;86.70;;;;;;5029934;28;20030;-69
2022/04/11 06:32:04;;;;;;;6.82;3.08;;;3.80;86.90;;;;;;5032431;28;20025;-69
2022/04/11 06:34:34;;;;;;;9.45;3.10;;;3.90;86.60;;;;;;5031248;28;20025;-69
2022/04/11 06:37:00;;;;;;;8.57;2.90;;;4.10;86.90;;;;;;5026360;28;20026;-69
2022/04/11 06:39:26;;;;;;;10.48;3.17;;;4.20;86.40;;;;;;5029376;28;20434;-70
2022/04/11 06:41:52;;;;;;;5.85;3.08;;;4.30;86.00;;;;;;5031914;28;20388;-70
2022/04/11 06:44:17;;;;;;;9.20;2.78;;;4.40;86.00;;;;;;5031189;28;20041;-69
2022/04/11 06:46:43;;;;;;;7.45;2.88;;;4.50;85.40;;;;;;5030612;28;20362;-70
2022/04/11 06:49:08;;;;;;;7.82;3.22;;;4.60;85.50;;;;;;5031281;28;20651;-69
2022/04/11 06:51:34;;;;;;;16.42;2.90;;;4.70;85.10;;;;;;5031318;28;20480;-69
2022/04/11 06:53:59;;;;;;;8.30;2.90;;;4.80;84.70;;;;;;5027230;28;20084;-70
2022/04/11 06:56:25;;;;;;;10.05;2.65;;;4.90;84.70;;;;;;5027410;28;20100;-69
2022/04/11 06:58:50;;;;;;;9.70;2.92;;;5.00;84.30;;;;;;5031814;28;20055;-69
2022/04/11 07:01:16;;;;;;;5.47;2.65;;;5.00;83.80;;;;;;5030961;28;20121;-70
2022/04/11 07:03:41;;;;;;;9.88;3.03;;;5.10;83.10;;;;;;5022703;28;20046;-72
2022/04/11 07:06:08;;;;;;;6.25;2.40;;;5.20;83.00;;;;;;5027019;28;20368;-70
2022/04/11 07:08:33;;;;;;;7.10;2.85;;;5.30;82.60;;;;;;5031558;28;20032;-70
2022/04/11 07:10:59;;;;;;;5.50;2.50;;;5.50;83.50;;;;;;5027832;28;20376;-69
2022/04/11 07:13:25;;;;;;;7.00;2.78;;;5.70;83.30;;;;;;5030865;28;20026;-69
2022/04/11 07:15:51;;;;;;;8.98;2.88;;;5.80;82.60;;;;;;5030802;28;20120;-70
2022/04/11 07:18:19;;;;;;;10.40;2.90;;;6.10;82.80;;;;;;5029869;28;20037;-70
2022/04/11 07:20:45;;;;;;;6.80;2.72;;;6.10;81.50;;;;;;5023934;28;20064;-69
2022/04/11 07:23:10;;;;;;;10.13;2.90;;;6.10;81.10;;;;;;5025215;28;20064;-70
2022/04/11 07:25:37;;;;;;;6.80;2.42;;;6.10;80.00;;;;;;5031177;28;20424;-70
2022/04/11 07:28:03;;;;;;;9.77;2.80;;;6.20;80.50;;;;;;5028643;28;20029;-70
2022/04/11 07:30:28;;;;;;;9.60;2.53;;;6.40;80.30;;;;;;5030614;28;20461;-71
2022/04/11 07:32:53;;;;;;;10.25;2.72;;;6.70;80.50;;;;;;5029438;28;20033;-71
2022/04/11 07:35:19;;;;;;;8.15;2.75;;;6.70;79.80;;;;;;5030874;28;20033;-69
2022/04/11 07:37:45;;;;;;;9.02;2.45;;;6.70;78.60;;;;;;5026265;28;20030;-70
2022/04/11 07:40:11;;;;;;;12.15;2.80;;;6.80;77.20;;;;;;5031225;28;20072;-69
2022/04/11 07:42:36;;;;;;;8.30;2.40;;;6.90;76.80;;;;;;5031153;28;20507;-69
2022/04/11 07:45:02;;;;;;;8.57;2.50;;;7.10;76.10;;;;;;5024804;28;20049;-72
2022/04/11 07:47:28;;;;;;;6.68;2.85;;;7.10;75.20;;;;;;5026556;28;20033;-70
2022/04/11 07:49:54;;;;;;;9.52;2.63;;;7.10;74.80;;;;;;5029881;28;20045;-70
2022/04/11 07:52:21;;;;;;;8.60;2.55;;;7.30;75.00;;;;;;5030607;28;20030;-71
2022/04/11 07:54:46;;;;;;;8.73;2.22;;;7.30;74.00;;;;;;5023829;28;20025;-69
2022/04/11 07:57:13;;;;;;;7.10;2.35;;;7.50;74.60;;;;;;5026389;28;20033;-69
2022/04/11 07:59:39;;;;;;;6.53;2.78;;;7.50;73.60;;;;;;5029543;28;20069;-70
2022/04/11 08:02:04;;;;;;;8.00;2.80;;;7.90;74.40;;;;;;5029512;28;20061;-69
2022/04/11 08:04:30;;;;;;;8.77;2.38;;;7.90;72.50;;;;;;5030389;28;20049;-69
2022/04/11 08:06:55;;;;;;;6.70;2.45;;;8.00;72.40;;;;;;5030526;28;20029;-70
2022/04/11 08:09:21;;;;;;;5.50;2.42;;;8.00;69.10;;;;;;5030860;28;20045;-69
2022/04/11 08:11:46;;;;;;;8.23;2.35;;;8.00;66.80;;;;;;5027726;28;20037;-70
2022/04/11 08:14:12;;;;;;;8.55;2.45;;;8.10;68.50;;;;;;5030131;28;20056;-70
2022/04/11 08:16:37;;;;;;;6.22;2.38;;;8.30;69.70;;;;;;5028984;28;20497;-71
2022/04/11 08:19:03;;;;;;;7.07;2.47;;;8.60;68.30;;;;;;5025679;28;20085;-69
2022/04/11 08:21:28;;;;;;;6.68;1.90;;;8.80;68.90;;;;;;5022106;28;20040;-70
2022/04/11 08:23:54;;;;;;;5.65;1.83;;;8.90;65.80;;;;;;5025564;28;20033;-70
2022/04/11 08:26:19;;;;;;;5.10;1.60;;;8.80;65.30;;;;;;5032080;28;20431;-70
2022/04/11 08:28:45;;;;;;;8.73;1.70;;;8.80;64.20;;;;;;5027231;28;20061;-70
2022/04/11 08:31:10;;;;;;;8.15;1.80;;;8.90;65.10;;;;;;5046330;28;20021;-70
2022/04/11 08:33:36;;;;;;;5.07;1.85;;;9.10;66.40;;;;;;5034135;28;20138;-70
2022/04/11 08:36:03;;;;;;;4.60;1.02;;;9.30;62.80;;;;;;5031502;28;20103;-73
2022/04/11 08:38:28;;;;;;;4.03;0.80;;;9.20;59.60;;;;;;5034610;28;20025;-70
2022/04/11 08:40:55;;;;;;;1.45;0.98;;;9.20;56.10;;;;;;5034188;28;20481;-70
2022/04/11 08:43:24;;;;;;;2.95;1.10;;;9.40;55.30;;;;;;5034336;28;20049;-71
2022/04/11 08:45:53;;;;;;;4.63;1.25;;;9.40;58.60;;;;;;5028526;28;20030;-70
2022/04/11 08:48:21;;;;;;;3.85;0.90;;;9.30;57.00;;;;;;5034112;28;20030;-70
2022/04/11 08:50:47;;;;;;;1.83;0.90;;;9.60;56.40;;;;;;5023707;28;20524;-70
2022/04/11 08:53:13;;;;;;;3.42;0.75;;;9.40;52.60;;;;;;5023906;28;20120;-70
2022/04/11 08:55:39;;;;;;;3.40;1.00;;;9.80;54.90;;;;;;5033665;28;20499;-70
2022/04/11 08:58:07;;;;;;;2.90;1.10;;;10.10;54.00;;;;;;5032720;28;20029;-70
2022/04/11 09:00:33;;;;;;;3.92;1.23;;;9.80;51.00;;;;;;5032290;28;20034;-70
2022/04/11 09:02:58;;;;;;;4.75;1.25;;;10.10;52.60;;;;;;5029366;28;20037;-69
2022/04/11 09:05:25;;;;;;;3.88;1.20;;;9.80;50.30;;;;;;5033295;28;20030;-70
2022/04/11 09:07:56;;;;;;;4.25;1.10;;;9.80;53.80;;;;;;5033785;28;20037;-69
2022/04/11 09:10:28;;;;;;;3.58;0.98;;;9.90;52.50;;;;;;5025536;28;20087;-70
2022/04/11 09:12:57;;;;;;;2.15;0.70;;;10.30;52.60;;;;;;5029862;28;20034;-70
2022/04/11 09:15:23;;;;;;;3.17;1.02;;;10.30;50.40;;;;;;5033216;28;20065;-72
2022/04/11 09:17:50;;;;;;;3.00;0.90;;;10.20;50.70;;;;;;5025588;28;20041;-70
2022/04/11 09:20:17;;;;;;;4.68;0.88;;;10.40;50.70;;;;;;5031116;28;20032;-69
2022/04/11 09:22:43;;;;;;;2.03;0.73;;;10.50;49.00;;;;;;5033151;28;20034;-70
2022/04/11 09:25:13;;;;;;;4.85;0.90;;;10.30;50.70;;;;;;5032529;28;20477;-70
2022/04/11 09:27:39;;;;;;;4.25;0.90;;;10.70;50.60;;;;;;5031719;28;20479;-69
2022/04/11 09:30:27;;;;;;;3.40;1.10;;;11.00;49.70;;;;;;5033366;28;20041;-70
2022/04/11 09:32:55;;;;;;;1.67;0.80;;;10.40;47.00;;;;;;5033403;28;20415;-70
2022/04/11 09:35:30;;;;;;;3.35;0.77;;;10.60;49.40;;;;;;5032876;28;20464;-69
2022/04/11 09:38:15;;;;;;;2.22;0.95;;;10.90;50.60;;;;;;5022587;28;20029;-69
2022/04/11 09:40:54;;;;;;;6.60;0.98;;;11.10;48.10;;;;;;5033063;28;20029;-70
2022/04/11 09:43:28;;;;;;;3.20;0.90;;;11.10;49.10;;;;;;5032897;28;20046;-69
2022/04/11 09:45:54;;;;;;;3.83;0.82;;;11.00;46.40;;;;;;5030628;28;20111;-73
2022/04/11 09:48:32;;;;;;;3.63;0.98;;;11.00;45.80;;;;;;5033015;28;20421;-70
2022/04/11 09:50:59;;;;;;;3.42;1.00;;;11.00;47.70;;;;;;5031277;28;20036;-70
2022/04/11 09:53:29;;;;;;;3.63;1.20;;;10.90;48.80;;;;;;5028596;28;20037;-73
2022/04/11 09:55:55;;;;;;;2.30;1.02;;;10.80;47.40;;;;;;5031579;28;20472;-70
2022/04/11 09:58:23;;;;;;;3.90;1.25;;;11.10;49.00;;;;;;5032242;28;20033;-70
2022/04/11 10:00:50;;;;;;;5.80;1.77;;;11.00;47.50;;;;;;5028045;28;20428;-69
2022/04/11 10:03:17;;;;;;;5.30;1.48;;;11.10;49.40;;;;;;5032137;28;20042;-69
2022/04/11 10:05:43;;;;;;;3.78;0.90;;;11.70;48.20;;;;;;5032090;28;20116;-69
2022/04/11 10:08:11;;;;;;;4.55;1.15;;;11.20;47.20;;;;;;5031309;28;20061;-70
2022/04/11 10:10:39;;;;;;;3.83;1.10;;;11.40;46.70;;;;;;5026879;28;20373;-70
2022/04/11 10:13:11;;;;;;;3.45;1.15;;;11.20;46.60;;;;;;5031104;28;20033;-70
2022/04/11 10:15:37;;;;;;;4.25;1.23;;;11.70;48.40;;;;;;5032181;28;20030;-70
2022/04/11 10:18:04;;;;;;;5.72;1.55;;;11.50;45.30;;;;;;5026921;28;20037;-70
2022/04/11 10:20:34;;;;;;;4.82;1.20;;;11.50;47.60;;;;;;5024835;28;20520;-70
2022/04/11 10:23:11;;;;;;;3.57;1.20;;;11.60;47.70;;;;;;5023674;28;20473;-70
2022/04/11 10:25:44;;;;;;;3.55;1.13;;;12.10;46.10;;;;;;5029948;28;20262;-70
2022/04/11 10:28:19;;;;;;;4.32;1.40;;;12.10;47.30;;;;;;5021771;28;20495;-70
2022/04/11 10:31:01;;;;;;;4.95;1.70;;;11.70;45.10;;;;;;5031741;28;20029;-70
2022/04/11 10:33:45;;;;;;;3.28;1.40;;;12.00;47.90;;;;;;5031783;28;20037;-70
2022/04/11 10:36:29;;;;;;;4.78;1.42;;;11.80;45.20;;;;;;5028429;28;20040;-71
2022/04/11 10:39:13;;;;;;;4.72;1.40;;;12.10;47.00;;;;;;5031828;28;20021;-70
2022/04/11 10:41:56;;;;;;;4.35;1.27;;;11.90;46.20;;;;;;5030590;28;20025;-70
2022/04/11 10:44:40;;;;;;;4.13;1.40;;;12.00;45.20;;;;;;5027293;28;20107;-70
2022/04/11 10:47:09;;;;;;;7.53;1.85;;;12.60;48.40;;;;;;5019218;28;20036;-70
2022/04/11 10:49:55;;;;;;;3.75;1.45;;;12.60;46.70;;;;;;5017487;28;20044;-71
2022/04/11 10:52:33;;;;;;;6.93;1.65;;;12.30;45.80;;;;;;5023713;28;20091;-68
2022/04/11 10:55:15;;;;;;;4.50;1.20;;;12.50;44.80;;;;;;5031573;28;20393;-68
2022/04/11 10:57:44;;;;;;;4.72;1.48;;;12.90;47.20;;;;;;5031658;28;20037;-68
2022/04/11 11:00:14;;;;;;;5.35;1.50;;;12.50;43.30;;;;;;5031581;28;20030;-68
2022/04/11 11:02:52;;;;;;;3.80;1.60;;;12.70;45.20;;;;;;5020853;28;20025;-68
2022/04/11 11:05:30;;;;;;;5.93;1.52;;;12.50;43.30;;;;;;5029546;28;20034;-68
2022/04/11 11:08:17;;;;;;;3.92;1.30;;;12.50;43.60;;;;;;5030272;28;20030;-69
2022/04/11 11:10:49;;;;;;;5.70;1.48;;;12.60;44.40;;;;;;5030809;28;20034;-68
2022/04/11 11:13:36;;;;;;;3.70;1.20;;;12.70;44.00;;;;;;5031331;28;20035;-68
2022/04/11 11:16:07;;;;;;;4.60;1.33;;;13.00;43.90;;;;;;5031029;28;20035;-68
2022/04/11 11:18:54;;;;;;;3.72;1.15;;;12.60;42.60;;;;;;5028196;28;20038;-68
2022/04/11 11:21:20;;;;;;;5.00;1.45;;;12.80;43.20;;;;;;5030986;28;20108;-68
2022/04/11 11:24:04;;;;;;;3.42;1.63;;;13.00;45.10;;;;;;5030658;28;20036;-70
2022/04/11 11:26:53;;;;;;;2.33;1.25;;;13.40;45.00;;;;;;5028832;28;20022;-68
2022/04/11 11:29:41;;;;;;;4.40;1.55;;;13.50;42.80;;;;;;5030870;28;20514;-68
2022/04/11 11:32:12;;;;;;;3.00;1.55;;;13.50;44.60;;;;;;5031003;28;20123;-68
2022/04/11 11:34:38;;;;;;;6.53;1.70;;;13.70;43.30;;;;;;5030825;28;20747;-68
2022/04/11 11:37:07;;;;;;;2.88;1.40;;;13.70;42.70;;;;;;5024184;28;20033;-68
2022/04/11 11:39:35;;;;;;;4.03;1.63;;;13.80;42.10;;;;;;5030959;28;20474;-68
2022/04/11 11:42:06;;;;;;;4.03;1.25;;;13.40;42.90;;;;;;5031345;28;20033;-68
2022/04/11 11:44:40;;;;;;;3.67;1.30;;;13.50;43.60;;;;;;5018629;28;20049;-68
2022/04/11 11:47:06;;;;;;;4.22;1.30;;;14.20;41.60;;;;;;5024905;28;20369;-68
2022/04/11 11:49:43;;;;;;;3.30;1.27;;;14.60;43.00;;;;;;5027652;28;20037;-71
2022/04/11 11:52:16;;;;;;;3.47;1.20;;;14.60;41.00;;;;;;5029069;28;20029;-68
2022/04/11 11:54:44;;;;;;;4.85;1.50;;;14.80;41.20;;;;;;5031077;28;20037;-68
2022/04/11 11:57:14;;;;;;;3.47;1.50;;;14.30;42.20;;;;;;5030478;28;20036;-71
2022/04/11 11:59:47;;;;;;;3.30;1.20;;;14.40;41.10;;;;;;5028703;28;20036;-68
2022/04/11 12:04:57;;;;;;;3.88;1.17;;;14.60;41.70;;;;;;5034249;28;20086;-68
2022/04/11 12:07:23;;;;;;;3.80;1.35;;;14.80;41.20;;;;;;5034515;28;20033;-72
2022/04/11 12:09:49;;;;;;;3.85;1.20;;;14.30;41.60;;;;;;5026410;28;20034;-68
2022/04/11 12:12:17;;;;;;;3.00;1.10;;;15.00;38.30;;;;;;5033423;28;20120;-68
2022/04/11 12:15:06;;;;;;;3.85;1.50;;;15.00;37.00;;;;;;5034333;28;20036;-68
2022/04/11 12:17:33;;;;;;;4.25;1.10;;;14.90;36.70;;;;;;5033113;28;20033;-68
2022/04/11 12:20:12;;;;;;;5.50;1.35;;;15.10;37.00;;;;;;5034054;28;20032;-69
2022/04/11 12:22:39;;;;;;;6.45;1.50;;;15.00;39.70;;;;;;5034636;28;20040;-68
2022/04/11 12:25:28;;;;;;;4.43;1.30;;;15.00;39.20;;;;;;5034104;28;20473;-68
2022/04/11 12:28:34;;;;;;;3.08;1.42;;;14.80;40.00;;;;;;5030631;28;20029;-68
2022/04/11 12:31:02;;;;;;;3.15;1.33;;;14.80;39.10;;;;;;5034125;28;20037;-68
2022/04/11 12:33:33;;;;;;;7.65;1.35;;;15.50;39.00;;;;;;5033178;28;20112;-68
2022/04/11 12:36:17;;;;;;;;;;;15.40;38.50;;;;;;5023919;28;20104;-68
2022/04/11 12:38:42;;;;;;;4.00;1.33;;;14.80;39.10;;;;;;5034100;28;19999;-68
2022/04/11 12:41:29;;;;;;;3.13;1.35;;;15.80;36.80;;;;;;5033844;28;20105;-68
2022/04/11 12:44:20;;;;;;;2.20;1.17;;;16.70;39.10;;;;;;5032906;28;20619;-68
2022/04/11 12:46:48;;;;;;;4.28;1.48;;;16.20;36.10;;;;;;5021313;28;20073;-71
2022/04/11 12:49:16;;;;;;;4.25;1.40;;;16.80;37.40;;;;;;5031915;28;20036;-69
2022/04/11 12:51:43;;;;;;;3.20;1.38;;;17.40;35.40;;;;;;5022320;28;20456;-69
2022/04/11 12:54:14;;;;;;;4.07;1.10;;;17.60;35.00;;;;;;5034030;28;20036;-69
2022/04/11 12:56:51;;;;;;;3.22;1.25;;;18.10;36.00;;;;;;5033973;28;20052;-69
2022/04/11 12:59:31;;;;;;;3.25;1.15;;;17.50;34.70;;;;;;5033818;28;20043;-71